Burlington, CO (80807)

2:30 AM MDT on August 29, 2015 (GMT -0600)
Burlington | | Change Station
CLOSE
Current Station
Personal Weather Station
Location: Burlington, CO
Elevation: 4167 ft
Nearby Weather Stations

Elev 4167 ft 39.30 °N, 102.26 °W | Updated 45 seconds ago

Clear
Clear
61.9 °F
Feels Like 61.9 °F
N
0.7
Wind Variable Wind from NW
Gusts 2.2 mph

Today
High -- | Low -- °F
--% Chance of Precip.
Yesterday
High -- | Low -- °F
Precip. -- in
6:14 AM 7:24 PM
Full, 100% visible
Pressure 30.07 in
Visibility 10.0 miles
Clouds Clear
Dew Point 54 °F
Humidity 74%
Rainfall 0.00 in
Snow Depth Not available.
UV 0 out of 12
Pollen 9.90 out of 12
Air Quality Not available.
Flu Activity Not available.
METAR KITR 290753Z AUTO 26004KT 10SM CLR 12/09 A3022 RMK AO2 SLP182 T01220089
Pressure 30.07 in
Visibility 10.0 miles
Clouds Clear
Dew Point 54 °F
Humidity 74%
Rainfall 0.00 in
Snow Depth Not available.
UV 0 out of 12
Pollen 9.90 out of 12
Air Quality Not available.
Flu Activity Not available.
METAR KITR 290753Z AUTO 26004KT 10SM CLR 12/09 A3022 RMK AO2 SLP182 T01220089

10-Day Weather Forecast

×

Almanac

Astronomy

Aug. 29, 2015 Rise Set
Actual Time
Civil Twilight
Nautical Twilight
Astronomical Twilight
Moon
Length of Visible Light
Length of Day
Tomorrow will be .
, % of the Moon is Illuminated

Today's Extremes

State Highs State Lows

Community

WunderPhotos

Upload Photos

1,850,634 photos uploaded!

WunderBlogs® & News

Nearby

Air Quality

  Air Quality AQ Index Pollutant
Not available.

Snow Depth

Station Depth Elevation

Earthquake Activity

City Distance Mag. Time & Date
Minimum magnitude displayed is 2.5.

Coastal Water Temperatures

Place Temperature

Stations

Nearby Weather Stations

Station Location Temp. Windchill Dew Point Humidity Wind Precip. Elev Updated Type